Harvey, North Dakota
Current Conditions -  °F | °C
As of 1:15 AM on Saturday 29 Nov 2014 (Local Time) from K5H4 Reporting Station
Few Clouds Few Clouds  
Wind Chill: 14°   Ceiling: Unl
Heat Index: 14°   Visibility: 10mi
Dew Point: 10°   Wind: 0mph
Humidity: 86%   Direction: NA
Pressure: 29.41"   Gusts: NA
Location:  47.77°N, 99.94°W
Report Text: K5H4 290715Z AUTO 00000KT 10SM FEW090 M10/M12 A2941 RMK AO2
Loading
Personal Weather Stations






























Interactive Weather Map New forecast layout! Learn more

10-Day Weather Forecast

Advertisements
Track Severe Weather on mobile